sensor_id;sensor_type;location;lat;lon;timestamp;pressure;altitude;pressure_sealevel;temperature;humidity
73692;BME280;61996;49.910;35.562;2023-04-04T00:00:49;98866.28;;;19.20;42.49
73692;BME280;61996;49.910;35.562;2023-04-04T00:03:52;98873.13;;;19.22;42.40
73692;BME280;61996;49.910;35.562;2023-04-04T00:06:55;98881.13;;;19.22;42.27
73692;BME280;61996;49.910;35.562;2023-04-04T00:09:59;98880.47;;;19.20;42.42
73692;BME280;61996;49.910;35.562;2023-04-04T00:13:02;98886.63;;;19.21;42.23
73692;BME280;61996;49.910;35.562;2023-04-04T00:16:06;98890.94;;;19.22;42.40
73692;BME280;61996;49.910;35.562;2023-04-04T00:19:09;98884.94;;;19.20;42.36
73692;BME280;61996;49.910;35.562;2023-04-04T00:22:18;98890.28;;;19.20;42.37
73692;BME280;61996;49.910;35.562;2023-04-04T00:25:22;98892.78;;;19.21;42.21
73692;BME280;61996;49.910;35.562;2023-04-04T00:28:25;98901.78;;;19.20;42.34
73692;BME280;61996;49.910;35.562;2023-04-04T00:31:28;98907.63;;;19.24;42.28
73692;BME280;61996;49.910;35.562;2023-04-04T00:34:31;98905.28;;;19.21;42.35
73692;BME280;61996;49.910;35.562;2023-04-04T00:37:34;98907.94;;;19.21;42.21
73692;BME280;61996;49.910;35.562;2023-04-04T00:40:40;98907.41;;;19.17;42.31
73692;BME280;61996;49.910;35.562;2023-04-04T00:43:43;98908.41;;;19.16;42.32
73692;BME280;61996;49.910;35.562;2023-04-04T00:46:46;98908.41;;;19.16;42.32
73692;BME280;61996;49.910;35.562;2023-04-04T00:49:49;98908.88;;;19.11;42.32
73692;BME280;61996;49.910;35.562;2023-04-04T00:52:52;98918.56;;;19.12;42.45
73692;BME280;61996;49.910;35.562;2023-04-04T00:55:57;98917.69;;;19.12;42.34
73692;BME280;61996;49.910;35.562;2023-04-04T00:59:00;98920.38;;;19.12;42.39
73692;BME280;61996;49.910;35.562;2023-04-04T01:02:03;98930.06;;;19.13;42.44
73692;BME280;61996;49.910;35.562;2023-04-04T01:05:06;98925.84;;;19.10;42.26
73692;BME280;61996;49.910;35.562;2023-04-04T01:08:09;98925.19;;;19.08;42.47
73692;BME280;61996;49.910;35.562;2023-04-04T01:11:13;98925.84;;;19.10;42.20
73692;BME280;61996;49.910;35.562;2023-04-04T01:14:17;98924.03;;;19.11;42.28
73692;BME280;61996;49.910;35.562;2023-04-04T01:17:19;98930.06;;;19.13;42.27
73692;BME280;61996;49.910;35.562;2023-04-04T01:20:24;98924.56;;;19.14;42.20
73692;BME280;61996;49.910;35.562;2023-04-04T01:23:34;98927.22;;;19.14;42.28
73692;BME280;61996;49.910;35.562;2023-04-04T01:26:39;98927.22;;;19.14;42.20
73692;BME280;61996;49.910;35.562;2023-04-04T01:29:42;98932.56;;;19.14;42.24
73692;BME280;61996;49.910;35.562;2023-04-04T01:32:46;98920.06;;;19.15;42.31
73692;BME280;61996;49.910;35.562;2023-04-04T01:35:56;98931.72;;;19.14;42.20
73692;BME280;61996;49.910;35.562;2023-04-04T01:39:04;98933.41;;;19.15;42.09
73692;BME280;61996;49.910;35.562;2023-04-04T01:42:11;98933.41;;;19.15;42.14
73692;BME280;61996;49.910;35.562;2023-04-04T01:45:15;98932.56;;;19.14;42.28
73692;BME280;61996;49.910;35.562;2023-04-04T01:48:18;98932.56;;;19.14;42.11
73692;BME280;61996;49.910;35.562;2023-04-04T01:51:21;98929.72;;;19.16;42.04
73692;BME280;61996;49.910;35.562;2023-04-04T01:54:25;98934.38;;;19.14;42.16
73692;BME280;61996;49.910;35.562;2023-04-04T01:57:30;98938.06;;;19.13;42.19
73692;BME280;61996;49.910;35.562;2023-04-04T02:00:33;98943.38;;;19.13;42.03
73692;BME280;61996;49.910;35.562;2023-04-04T02:03:35;98941.56;;;19.13;42.17
73692;BME280;61996;49.910;35.562;2023-04-04T02:06:38;98944.69;;;19.09;42.06
73692;BME280;61996;49.910;35.562;2023-04-04T02:09:41;98933.56;;;19.13;42.23
73692;BME280;61996;49.910;35.562;2023-04-04T02:12:46;98930.72;;;19.15;42.19
73692;BME280;61996;49.910;35.562;2023-04-04T02:15:49;98931.03;;;19.12;42.07
73692;BME280;61996;49.910;35.562;2023-04-04T02:18:52;98932.84;;;19.11;42.24
73692;BME280;61996;49.910;35.562;2023-04-04T02:21:55;98927.53;;;19.11;42.12
73692;BME280;61996;49.910;35.562;2023-04-04T02:24:58;98931.72;;;19.14;42.28
73692;BME280;61996;49.910;35.562;2023-04-04T02:28:04;98926.41;;;19.14;42.12
73692;BME280;61996;49.910;35.562;2023-04-04T02:31:07;98931.19;;;19.10;42.21
73692;BME280;61996;49.910;35.562;2023-04-04T02:34:10;98939.88;;;19.12;42.21
73692;BME280;61996;49.910;35.562;2023-04-04T02:37:13;98946.34;;;19.10;42.08
73692;BME280;61996;49.910;35.562;2023-04-04T02:40:16;98951.00;;;19.08;42.20
73692;BME280;61996;49.910;35.562;2023-04-04T02:43:21;98947.66;;;19.06;42.36
73692;BME280;61996;49.910;35.562;2023-04-04T02:46:23;98952.13;;;19.05;42.21
73692;BME280;61996;49.910;35.562;2023-04-04T02:49:26;98953.97;;;19.05;42.12
73692;BME280;61996;49.910;35.562;2023-04-04T02:52:30;98956.78;;;19.03;42.33
73692;BME280;61996;49.910;35.562;2023-04-04T02:55:33;98960.47;;;19.02;42.34
73692;BME280;61996;49.910;35.562;2023-04-04T02:58:37;98961.13;;;19.04;42.44
73692;BME280;61996;49.910;35.562;2023-04-04T03:01:43;98964.50;;;19.06;42.15
73692;BME280;61996;49.910;35.562;2023-04-04T03:04:47;98978.66;;;19.07;42.17
73692;BME280;61996;49.910;35.562;2023-04-04T03:07:51;98973.16;;;19.08;42.04
73692;BME280;61996;49.910;35.562;2023-04-04T03:10:54;98974.63;;;19.03;42.24
73692;BME280;61996;49.910;35.562;2023-04-04T03:13:59;98981.44;;;19.05;42.28
73692;BME280;61996;49.910;35.562;2023-04-04T03:17:02;98984.50;;;19.10;42.39
73692;BME280;61996;49.910;35.562;2023-04-04T03:20:05;98988.69;;;19.13;43.10
73692;BME280;61996;49.910;35.562;2023-04-04T03:23:08;98998.34;;;19.14;42.80
73692;BME280;61996;49.910;35.562;2023-04-04T03:26:11;98990.88;;;19.17;42.69
73692;BME280;61996;49.910;35.562;2023-04-04T03:29:15;99000.19;;;19.13;42.73
73692;BME280;61996;49.910;35.562;2023-04-04T03:32:19;99002.47;;;19.08;42.77
73692;BME280;61996;49.910;35.562;2023-04-04T03:35:22;98994.47;;;19.08;42.82
73692;BME280;61996;49.910;35.562;2023-04-04T03:38:25;99000.81;;;19.07;42.75
73692;BME280;61996;49.910;35.562;2023-04-04T03:41:27;98998.97;;;19.08;42.73
73692;BME280;61996;49.910;35.562;2023-04-04T03:44:32;98995.16;;;19.10;42.64
73692;BME280;61996;49.910;35.562;2023-04-04T03:47:34;99003.97;;;19.11;42.50
73692;BME280;61996;49.910;35.562;2023-04-04T03:50:37;99003.97;;;19.11;42.33
73692;BME280;61996;49.910;35.562;2023-04-04T03:53:40;98996.31;;;19.08;42.43
73692;BME280;61996;49.910;35.562;2023-04-04T03:56:44;99008.75;;;18.99;42.60
73692;BME280;61996;49.910;35.562;2023-04-04T03:59:49;99013.25;;;18.99;42.70
73692;BME280;61996;49.910;35.562;2023-04-04T04:02:52;99009.66;;;18.90;42.62
73692;BME280;61996;49.910;35.562;2023-04-04T04:05:55;99006.38;;;18.96;42.72
73692;BME280;61996;49.910;35.562;2023-04-04T04:08:58;99010.81;;;18.87;42.87
73692;BME280;61996;49.910;35.562;2023-04-04T04:12:01;99023.13;;;18.88;42.65
73692;BME280;61996;49.910;35.562;2023-04-04T04:15:06;99033.63;;;18.90;42.65
73692;BME280;61996;49.910;35.562;2023-04-04T04:18:09;99042.41;;;19.00;42.55
73692;BME280;61996;49.910;35.562;2023-04-04T04:21:13;99044.91;;;19.02;42.55
73692;BME280;61996;49.910;35.562;2023-04-04T04:24:16;99052.22;;;19.00;42.36
73692;BME280;61996;49.910;35.562;2023-04-04T04:27:18;99055.09;;;19.06;42.25
73692;BME280;61996;49.910;35.562;2023-04-04T04:30:23;99064.06;;;19.05;42.28
73692;BME280;61996;49.910;35.562;2023-04-04T04:33:26;99049.91;;;19.05;42.10
73692;BME280;61996;49.910;35.562;2023-04-04T04:36:30;99059.59;;;19.06;42.10
73692;BME280;61996;49.910;35.562;2023-04-04T04:39:33;99055.41;;;19.03;42.20
73692;BME280;61996;49.910;35.562;2023-04-04T04:42:39;99073.75;;;19.06;42.21
73692;BME280;61996;49.910;35.562;2023-04-04T04:45:46;99070.25;;;19.06;42.18
73692;BME280;61996;49.910;35.562;2023-04-04T04:48:49;99073.75;;;19.06;42.08
73692;BME280;61996;49.910;35.562;2023-04-04T04:51:52;99077.38;;;19.05;42.02
73692;BME280;61996;49.910;35.562;2023-04-04T04:54:55;99081.03;;;19.04;42.16
73692;BME280;61996;49.910;35.562;2023-04-04T04:57:57;99091.72;;;19.04;42.35
73692;BME280;61996;49.910;35.562;2023-04-04T05:01:02;99080.06;;;19.05;42.15
73692;BME280;61996;49.910;35.562;2023-04-04T05:04:05;99085.69;;;19.02;42.07
73692;BME280;61996;49.910;35.562;2023-04-04T05:07:07;99091.03;;;19.02;42.18
73692;BME280;61996;49.910;35.562;2023-04-04T05:10:10;99092.03;;;19.01;42.21
73692;BME280;61996;49.910;35.562;2023-04-04T05:13:14;99087.91;;;18.89;42.31
73692;BME280;61996;49.910;35.562;2023-04-04T05:16:18;99094.31;;;18.96;42.23
73692;BME280;61996;49.910;35.562;2023-04-04T05:19:22;99085.63;;;18.94;42.23
73692;BME280;61996;49.910;35.562;2023-04-04T05:22:24;99073.81;;;18.97;42.22
73692;BME280;61996;49.910;35.562;2023-04-04T05:25:28;99076.75;;;18.85;42.32
73692;BME280;61996;49.910;35.562;2023-04-04T05:28:31;99079.16;;;18.97;42.28
73692;BME280;61996;49.910;35.562;2023-04-04T05:31:36;99070.16;;;18.98;42.26
73692;BME280;61996;49.910;35.562;2023-04-04T05:34:39;99073.88;;;19.05;42.16
73692;BME280;61996;49.910;35.562;2023-04-04T05:37:42;99076.56;;;19.05;41.97
73692;BME280;61996;49.910;35.562;2023-04-04T05:40:45;99062.09;;;19.07;41.93
73692;BME280;61996;49.910;35.562;2023-04-04T05:43:47;99064.06;;;19.05;41.79
73692;BME280;61996;49.910;35.562;2023-04-04T05:46:52;99078.09;;;19.07;41.83
73692;BME280;61996;49.910;35.562;2023-04-04T05:49:54;99074.13;;;19.11;41.87
73692;BME280;61996;49.910;35.562;2023-04-04T05:52:57;99075.94;;;19.11;41.80
73692;BME280;61996;49.910;35.562;2023-04-04T05:56:00;99076.78;;;19.11;41.66
73692;BME280;61996;49.910;35.562;2023-04-04T05:59:03;99089.13;;;19.12;41.69
73692;BME280;61996;49.910;35.562;2023-04-04T06:02:08;99097.81;;;19.14;41.77
73692;BME280;61996;49.910;35.562;2023-04-04T06:05:11;99097.66;;;19.16;41.58
73692;BME280;61996;49.910;35.562;2023-04-04T06:08:14;99111.81;;;19.16;41.52
73692;BME280;61996;49.910;35.562;2023-04-04T06:11:16;99113.81;;;19.14;41.64
73692;BME280;61996;49.910;35.562;2023-04-04T06:14:19;99110.47;;;19.12;41.66
73692;BME280;61996;49.910;35.562;2023-04-04T06:17:23;99110.81;;;19.17;41.49
73692;BME280;61996;49.910;35.562;2023-04-04T06:20:26;99114.63;;;19.15;41.76
73692;BME280;61996;49.910;35.562;2023-04-04T06:23:29;99113.97;;;19.13;41.80
73692;BME280;61996;49.910;35.562;2023-04-04T06:26:32;99128.81;;;19.15;41.82
73692;BME280;61996;49.910;35.562;2023-04-04T06:29:35;99128.13;;;19.13;41.72
73692;BME280;61996;49.910;35.562;2023-04-04T06:32:39;99126.28;;;19.14;41.82
73692;BME280;61996;49.910;35.562;2023-04-04T06:35:43;99125.97;;;19.17;41.72
73692;BME280;61996;49.910;35.562;2023-04-04T06:38:46;99131.78;;;19.12;41.85
73692;BME280;61996;49.910;35.562;2023-04-04T06:41:49;99130.47;;;19.16;41.72
73692;BME280;61996;49.910;35.562;2023-04-04T06:44:52;99134.81;;;19.17;41.60
73692;BME280;61996;49.910;35.562;2023-04-04T06:47:57;99143.50;;;19.20;41.63
73692;BME280;61996;49.910;35.562;2023-04-04T06:51:00;99147.00;;;19.20;41.59
73692;BME280;61996;49.910;35.562;2023-04-04T06:54:03;99140.69;;;19.21;41.62
73692;BME280;61996;49.910;35.562;2023-04-04T06:57:06;99137.84;;;19.23;41.53
73692;BME280;61996;49.910;35.562;2023-04-04T07:00:09;99147.38;;;19.25;41.33
73692;BME280;61996;49.910;35.562;2023-04-04T07:03:13;99146.41;;;19.26;41.42
73692;BME280;61996;49.910;35.562;2023-04-04T07:06:16;99155.38;;;19.25;41.36
73692;BME280;61996;49.910;35.562;2023-04-04T07:09:19;99158.03;;;19.25;41.35
73692;BME280;61996;49.910;35.562;2023-04-04T07:12:30;99158.03;;;19.25;41.51
73692;BME280;61996;49.910;35.562;2023-04-04T07:15:33;99156.91;;;19.28;41.34
73692;BME280;61996;49.910;35.562;2023-04-04T07:18:38;99156.19;;;19.26;41.42
73692;BME280;61996;49.910;35.562;2023-04-04T07:21:40;99164.75;;;19.29;41.35
73692;BME280;61996;49.910;35.562;2023-04-04T07:24:43;99164.75;;;19.29;41.33
73692;BME280;61996;49.910;35.562;2023-04-04T07:27:46;99162.91;;;19.30;41.27
73692;BME280;61996;49.910;35.562;2023-04-04T07:30:49;99168.94;;;19.32;41.28
73692;BME280;61996;49.910;35.562;2023-04-04T07:33:53;99169.09;;;19.30;41.29
73692;BME280;61996;49.910;35.562;2023-04-04T07:36:56;99162.09;;;19.29;41.47
73692;BME280;61996;49.910;35.562;2023-04-04T07:39:59;99169.09;;;19.30;41.33
73692;BME280;61996;49.910;35.562;2023-04-04T07:43:02;99169.25;;;19.29;41.33
73692;BME280;61996;49.910;35.562;2023-04-04T07:46:05;99162.91;;;19.30;41.30
73692;BME280;61996;49.910;35.562;2023-04-04T07:49:09;99164.44;;;19.32;41.30
73692;BME280;61996;49.910;35.562;2023-04-04T07:52:13;99158.25;;;19.32;41.27
73692;BME280;61996;49.910;35.562;2023-04-04T07:55:16;99160.47;;;19.36;41.15
73692;BME280;61996;49.910;35.562;2023-04-04T07:58:19;99162.47;;;19.34;41.11
73692;BME280;61996;49.910;35.562;2023-04-04T08:01:22;99169.16;;;19.38;41.11
73692;BME280;61996;49.910;35.562;2023-04-04T08:04:26;99171.81;;;19.38;41.19
73692;BME280;61996;49.910;35.562;2023-04-04T08:07:29;99176.69;;;19.43;41.02
73692;BME280;61996;49.910;35.562;2023-04-04T08:10:32;99173.03;;;19.44;41.08
73692;BME280;61996;49.910;35.562;2023-04-04T08:13:35;99169.53;;;19.43;40.95
73692;BME280;61996;49.910;35.562;2023-04-04T08:16:38;99171.38;;;19.43;41.01
73692;BME280;61996;49.910;35.562;2023-04-04T08:19:42;99169.38;;;19.45;40.94
73692;BME280;61996;49.910;35.562;2023-04-04T08:22:44;99169.53;;;19.43;41.08
73692;BME280;61996;49.910;35.562;2023-04-04T08:25:47;99165.72;;;19.46;40.95
73692;BME280;61996;49.910;35.562;2023-04-04T08:28:50;99180.59;;;19.49;40.91
73692;BME280;61996;49.910;35.562;2023-04-04T08:31:53;99180.03;;;19.45;40.99
73692;BME280;61996;49.910;35.562;2023-04-04T08:34:57;99174.25;;;19.50;40.86
73692;BME280;61996;49.910;35.562;2023-04-04T08:38:00;99174.41;;;19.48;40.97
73692;BME280;61996;49.910;35.562;2023-04-04T08:41:07;99189.59;;;19.48;41.08
73692;BME280;61996;49.910;35.562;2023-04-04T08:44:11;99182.41;;;19.48;40.92
73692;BME280;61996;49.910;35.562;2023-04-04T08:47:18;99182.41;;;19.48;40.93
73692;BME280;61996;49.910;35.562;2023-04-04T08:50:25;99187.44;;;19.51;40.94
73692;BME280;61996;49.910;35.562;2023-04-04T08:53:29;99185.31;;;19.55;40.95
73692;BME280;61996;49.910;35.562;2023-04-04T08:56:32;99189.25;;;19.51;40.88
73692;BME280;61996;49.910;35.562;2023-04-04T08:59:36;99186.97;;;19.56;40.92
73692;BME280;61996;49.910;35.562;2023-04-04T09:02:42;99194.69;;;19.59;40.86
73692;BME280;61996;49.910;35.562;2023-04-04T09:05:48;99195.91;;;19.64;40.81
73692;BME280;61996;49.910;35.562;2023-04-04T09:08:51;99198.75;;;19.63;40.76
73692;BME280;61996;49.910;35.562;2023-04-04T09:11:54;99199.56;;;19.63;40.88
73692;BME280;61996;49.910;35.562;2023-04-04T09:14:57;99193.41;;;19.63;40.89
73692;BME280;61996;49.910;35.562;2023-04-04T09:18:01;99195.59;;;19.67;40.74
73692;BME280;61996;49.910;35.562;2023-04-04T09:21:08;99198.41;;;19.66;40.77
73692;BME280;61996;49.910;35.562;2023-04-04T09:24:12;99202.75;;;19.67;40.81
73692;BME280;61996;49.910;35.562;2023-04-04T09:27:15;99201.78;;;19.68;40.69
73692;BME280;61996;49.910;35.562;2023-04-04T09:30:19;99195.47;;;19.69;41.05
73692;BME280;61996;49.910;35.562;2023-04-04T09:33:22;99197.28;;;19.68;40.96
73692;BME280;61996;49.910;35.562;2023-04-04T09:36:27;99197.28;;;19.68;40.85
73692;BME280;61996;49.910;35.562;2023-04-04T09:39:30;99199.41;;;19.65;41.15
73692;BME280;61996;49.910;35.562;2023-04-04T09:42:33;99204.59;;;19.66;41.09
73692;BME280;61996;49.910;35.562;2023-04-04T09:45:38;99204.31;;;19.69;41.00
73692;BME280;61996;49.910;35.562;2023-04-04T09:48:41;99200.94;;;19.67;41.00
73692;BME280;61996;49.910;35.562;2023-04-04T09:51:53;99200.94;;;19.67;40.96
73692;BME280;61996;49.910;35.562;2023-04-04T09:54:56;99197.59;;;19.65;41.05
73692;BME280;61996;49.910;35.562;2023-04-04T09:58:00;99204.91;;;19.63;41.15
73692;BME280;61996;49.910;35.562;2023-04-04T10:01:07;99200.72;;;19.61;41.11
73692;BME280;61996;49.910;35.562;2023-04-04T10:04:10;99207.75;;;19.62;41.10
73692;BME280;61996;49.910;35.562;2023-04-04T10:07:14;99213.91;;;19.62;41.33
73692;BME280;61996;49.910;35.562;2023-04-04T10:10:17;99205.75;;;19.64;41.16
73692;BME280;61996;49.910;35.562;2023-04-04T10:13:21;99203.06;;;19.64;40.97
73692;BME280;61996;49.910;35.562;2023-04-04T10:16:25;99203.75;;;19.66;41.02
73692;BME280;61996;49.910;35.562;2023-04-04T10:19:28;99206.25;;;19.67;41.04
73692;BME280;61996;49.910;35.562;2023-04-04T10:22:32;99206.25;;;19.67;40.86
73692;BME280;61996;49.910;35.562;2023-04-04T10:25:36;99206.25;;;19.67;40.99
73692;BME280;61996;49.910;35.562;2023-04-04T10:28:39;99209.09;;;19.66;41.10
73692;BME280;61996;49.910;35.562;2023-04-04T10:31:47;99205.97;;;19.70;40.93
73692;BME280;61996;49.910;35.562;2023-04-04T10:34:54;99209.63;;;19.69;41.06
73692;BME280;61996;49.910;35.562;2023-04-04T10:38:00;99203.69;;;19.76;41.31
73692;BME280;61996;49.910;35.562;2023-04-04T10:41:05;99208.06;;;19.85;41.37
73692;BME280;61996;49.910;35.562;2023-04-04T10:44:11;99206.66;;;19.73;42.22
73692;BME280;61996;49.910;35.562;2023-04-04T10:47:16;99213.19;;;19.78;41.29
73692;BME280;61996;49.910;35.562;2023-04-04T10:50:20;99205.66;;;19.74;41.57
73692;BME280;61996;49.910;35.562;2023-04-04T10:53:24;99203.97;;;19.73;41.55
73692;BME280;61996;49.910;35.562;2023-04-04T10:56:27;99193.47;;;19.71;41.45
73692;BME280;61996;49.910;35.562;2023-04-04T10:59:35;99198.63;;;19.73;41.27
73692;BME280;61996;49.910;35.562;2023-04-04T11:02:58;99195.97;;;19.73;41.14
73692;BME280;61996;49.910;35.562;2023-04-04T11:06:02;99191.31;;;19.75;41.27
73692;BME280;61996;49.910;35.562;2023-04-04T11:09:45;99191.97;;;19.68;41.20
73692;BME280;61996;49.910;35.562;2023-04-04T11:12:45;99192.63;;;19.70;41.28
73692;BME280;61996;49.910;35.562;2023-04-04T11:15:52;99183.84;;;19.78;41.07
73692;BME280;61996;49.910;35.562;2023-04-04T11:18:57;99185.31;;;19.73;41.29
73692;BME280;61996;49.910;35.562;2023-04-04T11:22:01;99183.63;;;19.71;41.41
73692;BME280;61996;49.910;35.562;2023-04-04T11:29:18;99181.50;;;19.75;41.27
73692;BME280;61996;49.910;35.562;2023-04-04T11:32:32;99174.00;;;19.79;41.10
73692;BME280;61996;49.910;35.562;2023-04-04T11:35:38;99173.69;;;19.82;41.14
73692;BME280;61996;49.910;35.562;2023-04-04T11:38:43;99182.56;;;19.82;40.87
73692;BME280;61996;49.910;35.562;2023-04-04T11:41:53;99176.34;;;19.82;41.05
73692;BME280;61996;49.910;35.562;2023-04-04T11:45:02;99171.88;;;19.82;40.86
73692;BME280;61996;49.910;35.562;2023-04-04T11:48:05;99179.09;;;19.90;40.82
73692;BME280;61996;49.910;35.562;2023-04-04T11:51:10;99170.94;;;19.91;40.73
73692;BME280;61996;49.910;35.562;2023-04-04T11:54:13;99169.44;;;19.89;40.76
73692;BME280;61996;49.910;35.562;2023-04-04T11:57:19;99164.22;;;19.87;40.92
73692;BME280;61996;49.910;35.562;2023-04-04T12:00:30;99163.38;;;19.87;40.85
73692;BME280;61996;49.910;35.562;2023-04-04T12:03:33;99167.59;;;19.89;40.84
73692;BME280;61996;49.910;35.562;2023-04-04T12:06:36;99178.28;;;19.89;40.70
73692;BME280;61996;49.910;35.562;2023-04-04T12:09:40;99173.16;;;19.96;40.61
73692;BME280;61996;49.910;35.562;2023-04-04T12:12:43;99172.28;;;19.95;41.07
73692;BME280;61996;49.910;35.562;2023-04-04T12:15:48;99172.28;;;19.95;41.71
73692;BME280;61996;49.910;35.562;2023-04-04T12:18:51;99162.75;;;19.93;41.43
73692;BME280;61996;49.910;35.562;2023-04-04T12:21:55;99171.94;;;19.90;42.15
73692;BME280;61996;49.910;35.562;2023-04-04T12:24:58;99166.34;;;19.76;41.16
73692;BME280;61996;49.910;35.562;2023-04-04T12:28:01;99159.94;;;19.33;42.10
73692;BME280;61996;49.910;35.562;2023-04-04T12:31:07;99168.38;;;19.46;41.95
73692;BME280;61996;49.910;35.562;2023-04-04T12:34:14;99175.09;;;19.94;40.99
73692;BME280;61996;49.910;35.562;2023-04-04T12:37:22;99173.97;;;19.96;40.87
73692;BME280;61996;49.910;35.562;2023-04-04T12:40:33;99172.59;;;20.18;40.97
73692;BME280;61996;49.910;35.562;2023-04-04T12:43:37;99164.69;;;20.09;41.18
73692;BME280;61996;49.910;35.562;2023-04-04T12:46:44;99160.56;;;20.14;41.70
73692;BME280;61996;49.910;35.562;2023-04-04T12:49:48;99158.22;;;20.11;42.39
73692;BME280;61996;49.910;35.562;2023-04-04T12:52:51;99160.19;;;20.09;41.96
73692;BME280;61996;49.910;35.562;2023-04-04T12:56:08;99169.06;;;20.10;41.92
73692;BME280;61996;49.910;35.562;2023-04-04T12:59:11;99162.19;;;20.07;42.14
73692;BME280;61996;49.910;35.562;2023-04-04T13:02:16;99165.22;;;20.12;41.74
73692;BME280;61996;49.910;35.562;2023-04-04T13:05:19;99161.56;;;20.13;41.26
73692;BME280;61996;49.910;35.562;2023-04-04T13:08:23;99159.88;;;20.12;41.22
73692;BME280;61996;49.910;35.562;2023-04-04T13:11:35;99166.22;;;20.11;40.97
73692;BME280;61996;49.910;35.562;2023-04-04T13:14:58;99169.91;;;20.10;41.05
73692;BME280;61996;49.910;35.562;2023-04-04T13:18:12;99168.19;;;20.09;41.13
73692;BME280;61996;49.910;35.562;2023-04-04T13:21:15;99175.91;;;20.12;41.26
73692;BME280;61996;49.910;35.562;2023-04-04T13:24:18;99178.56;;;20.12;41.20
73692;BME280;61996;49.910;35.562;2023-04-04T13:27:21;99168.72;;;20.13;41.30
73692;BME280;61996;49.910;35.562;2023-04-04T13:30:28;99167.91;;;20.12;41.19
73692;BME280;61996;49.910;35.562;2023-04-04T13:33:33;99165.06;;;20.14;41.06
73692;BME280;61996;49.910;35.562;2023-04-04T13:36:36;99166.44;;;20.18;41.04
73692;BME280;61996;49.910;35.562;2023-04-04T13:39:39;99170.59;;;20.20;41.29
73692;BME280;61996;49.910;35.562;2023-04-04T13:42:41;99171.44;;;20.21;41.33
73692;BME280;61996;49.910;35.562;2023-04-04T13:45:44;99179.44;;;20.21;41.46
73692;BME280;61996;49.910;35.562;2023-04-04T13:48:49;99172.59;;;20.18;41.60
73692;BME280;61996;49.910;35.562;2023-04-04T13:51:51;99168.94;;;20.19;41.28
73692;BME280;61996;49.910;35.562;2023-04-04T13:54:54;99169.78;;;20.20;41.39
73692;BME280;61996;49.910;35.562;2023-04-04T13:57:57;99175.94;;;20.20;41.42
73692;BME280;61996;49.910;35.562;2023-04-04T14:01:00;99177.44;;;20.23;41.25
73692;BME280;61996;49.910;35.562;2023-04-04T14:04:05;99175.63;;;20.23;41.28
73692;BME280;61996;49.910;35.562;2023-04-04T14:07:24;99171.44;;;20.21;41.09
73692;BME280;61996;49.910;35.562;2023-04-04T14:10:27;99177.16;;;20.26;41.11
73692;BME280;61996;49.910;35.562;2023-04-04T14:13:29;99184.31;;;20.25;40.91
73692;BME280;61996;49.910;35.562;2023-04-04T14:16:33;99186.00;;;20.26;40.99
73692;BME280;61996;49.910;35.562;2023-04-04T14:19:38;99184.31;;;20.25;41.00
73692;BME280;61996;49.910;35.562;2023-04-04T14:22:41;99177.97;;;20.26;41.00
73692;BME280;61996;49.910;35.562;2023-04-04T14:25:43;99193.84;;;20.28;41.17
73692;BME280;61996;49.910;35.562;2023-04-04T14:28:46;99188.50;;;20.28;40.98
73692;BME280;61996;49.910;35.562;2023-04-04T14:31:49;99183.31;;;20.26;40.91
73692;BME280;61996;49.910;35.562;2023-04-04T14:34:54;99185.16;;;20.26;41.16
73692;BME280;61996;49.910;35.562;2023-04-04T14:37:56;99179.66;;;20.27;40.92
73692;BME280;61996;49.910;35.562;2023-04-04T14:40:59;99189.81;;;20.24;41.06
73692;BME280;61996;49.910;35.562;2023-04-04T14:44:02;99180.66;;;20.26;40.88
73692;BME280;61996;49.910;35.562;2023-04-04T14:47:05;99190.66;;;20.24;40.83
73692;BME280;61996;49.910;35.562;2023-04-04T14:50:09;99187.28;;;20.22;41.08
73692;BME280;61996;49.910;35.562;2023-04-04T14:53:13;99188.28;;;20.21;40.86
73692;BME280;61996;49.910;35.562;2023-04-04T14:56:16;99187.28;;;20.22;40.79
73692;BME280;61996;49.910;35.562;2023-04-04T14:59:20;99186.63;;;20.20;40.93
73692;BME280;61996;49.910;35.562;2023-04-04T15:02:23;99183.78;;;20.22;40.81
73692;BME280;61996;49.910;35.562;2023-04-04T15:05:28;99189.66;;;20.25;40.78
73692;BME280;61996;49.910;35.562;2023-04-04T15:08:30;99191.63;;;20.23;40.83
73692;BME280;61996;49.910;35.562;2023-04-04T15:11:33;99188.13;;;20.23;40.99
73692;BME280;61996;49.910;35.562;2023-04-04T15:14:36;99189.97;;;20.22;40.97
73692;BME280;61996;49.910;35.562;2023-04-04T15:17:39;99191.16;;;20.28;40.78
73692;BME280;61996;49.910;35.562;2023-04-04T15:20:43;99193.34;;;20.24;40.72
73692;BME280;61996;49.910;35.562;2023-04-04T15:23:47;99196.00;;;20.24;40.75
73692;BME280;61996;49.910;35.562;2023-04-04T15:26:50;99195.00;;;20.25;40.76
73692;BME280;61996;49.910;35.562;2023-04-04T15:29:53;99194.69;;;20.29;40.56
73692;BME280;61996;49.910;35.562;2023-04-04T15:32:55;99205.53;;;20.27;40.61
73692;BME280;61996;49.910;35.562;2023-04-04T15:36:00;99203.69;;;20.27;40.65
73692;BME280;61996;49.910;35.562;2023-04-04T15:39:02;99206.53;;;20.26;40.73
73692;BME280;61996;49.910;35.562;2023-04-04T15:42:05;99201.19;;;20.26;40.62
73692;BME280;61996;49.910;35.562;2023-04-04T15:45:08;99202.00;;;20.26;40.62
73692;BME280;61996;49.910;35.562;2023-04-04T15:48:12;99205.53;;;20.27;40.68
73692;BME280;61996;49.910;35.562;2023-04-04T15:51:16;99203.00;;;20.25;40.72
73692;BME280;61996;49.910;35.562;2023-04-04T15:54:19;99201.19;;;20.26;40.79
73692;BME280;61996;49.910;35.562;2023-04-04T15:57:22;99209.34;;;20.24;40.91
73692;BME280;61996;49.910;35.562;2023-04-04T16:00:25;99210.19;;;20.25;40.89
73692;BME280;61996;49.910;35.562;2023-04-04T16:03:29;99209.50;;;20.23;41.01
73692;BME280;61996;49.910;35.562;2023-04-04T16:06:33;99211.31;;;20.22;40.81